Time;durP1;ratioP1;P1;durP2;ratioP2;P2;SDS_P1;SDS_P2;PMS_P1;PMS_P2;Temp;Humidity;BMP_temperature;BMP_pressure;BME280_temperature;BME280_humidity;BME280_pressure;Samples;Min_cycle;Max_cycle;Signal;HPM_P1;HPM_P2
2024/02/06 00:00:11;;;;;;;12.45;2.88;;;;;;;;;;4986760;28;20423;-63
2024/02/06 00:02:37;;;;;;;7.35;3.30;;;;;;;;;;4988369;28;20042;-66
2024/02/06 00:05:03;;;;;;;5.32;2.35;;;;;;;;;;4989596;28;20029;-65
2024/02/06 00:07:29;;;;;;;9.45;2.58;;;;;;;;;;4989020;28;20170;-65
2024/02/06 00:09:55;;;;;;;8.23;2.80;;;;;;;;;;4984804;28;20026;-66
2024/02/06 00:12:21;;;;;;;13.35;3.28;;;;;;;;;;4988025;28;20385;-66
2024/02/06 00:14:46;;;;;;;7.53;3.17;;;;;;;;;;4988215;28;20054;-65
2024/02/06 00:17:12;;;;;;;17.13;2.75;;;;;;;;;;4986940;28;20038;-63
2024/02/06 00:19:38;;;;;;;8.82;4.18;;;;;;;;;;4989991;28;20066;-66
2024/02/06 00:22:04;;;;;;;3.53;2.47;;;;;;;;;;4988162;28;20035;-66
2024/02/06 00:24:30;;;;;;;7.25;2.58;;;;;;;;;;4984921;28;20058;-65
2024/02/06 00:26:56;;;;;;;10.65;3.70;;;;;;;;;;4987080;28;20069;-65
2024/02/06 00:29:24;;;;;;;12.85;3.13;;;;;;;;;;4988530;28;20372;-66
2024/02/06 00:31:50;;;;;;;10.98;2.88;;;;;;;;;;4987024;28;20401;-65
2024/02/06 00:34:18;;;;;;;7.00;2.90;;;;;;;;;;4986569;28;20120;-65
2024/02/06 00:36:44;;;;;;;6.57;2.60;;;;;;;;;;4989285;28;20034;-65
2024/02/06 00:39:10;;;;;;;17.95;2.80;;;;;;;;;;4987859;28;20036;-62
2024/02/06 00:41:37;;;;;;;8.85;2.50;;;;;;;;;;4986018;28;20070;-66
2024/02/06 00:44:03;;;;;;;9.90;3.47;;;;;;;;;;4989386;28;20027;-64
2024/02/06 00:46:29;;;;;;;6.60;2.80;;;;;;;;;;4984634;28;20038;-66
2024/02/06 00:48:55;;;;;;;9.65;2.70;;;;;;;;;;4988976;28;20065;-66
2024/02/06 00:51:21;;;;;;;8.20;2.53;;;;;;;;;;4985785;28;20057;-65
2024/02/06 00:53:47;;;;;;;7.88;2.83;;;;;;;;;;4988565;28;20037;-65
2024/02/06 00:56:13;;;;;;;16.58;3.33;;;;;;;;;;4987765;28;20121;-66
2024/02/06 00:58:41;;;;;;;14.50;3.38;;;;;;;;;;4988759;28;20019;-65
2024/02/06 01:01:06;;;;;;;9.55;2.63;;;;;;;;;;4986774;28;20019;-65
2024/02/06 01:03:33;;;;;;;12.18;3.20;;;;;;;;;;4986697;28;20031;-67
2024/02/06 01:05:59;;;;;;;12.30;3.05;;;;;;;;;;4986968;28;20038;-65
2024/02/06 01:08:25;;;;;;;12.60;3.35;;;;;;;;;;4985978;28;20030;-65
2024/02/06 01:10:51;;;;;;;14.50;3.50;;;;;;;;;;4987834;28;20058;-65
2024/02/06 01:13:16;;;;;;;13.98;3.05;;;;;;;;;;4986529;28;20037;-65
2024/02/06 01:15:42;;;;;;;16.92;3.92;;;;;;;;;;4987148;28;20042;-65
2024/02/06 01:18:08;;;;;;;8.73;3.15;;;;;;;;;;4986638;28;20142;-65
2024/02/06 01:20:34;;;;;;;14.10;3.30;;;;;;;;;;4987179;28;20129;-65
2024/02/06 01:23:00;;;;;;;14.10;3.05;;;;;;;;;;4987741;28;20030;-64
2024/02/06 01:25:29;;;;;;;18.58;3.42;;;;;;;;;;4986158;28;20496;-65
2024/02/06 01:27:55;;;;;;;14.00;2.65;;;;;;;;;;4987982;28;20018;-66
2024/02/06 01:30:21;;;;;;;6.22;2.67;;;;;;;;;;4985314;28;20033;-65
2024/02/06 01:32:47;;;;;;;6.75;2.72;;;;;;;;;;4986212;28;20030;-65
2024/02/06 01:35:13;;;;;;;10.73;2.75;;;;;;;;;;4984982;28;20196;-63
2024/02/06 01:37:39;;;;;;;12.65;2.88;;;;;;;;;;4986956;28;20037;-64
2024/02/06 01:40:06;;;;;;;8.00;3.22;;;;;;;;;;4985369;28;20101;-64
2024/02/06 01:42:32;;;;;;;6.13;2.60;;;;;;;;;;4985316;28;20031;-64
2024/02/06 01:44:58;;;;;;;13.80;3.10;;;;;;;;;;4986548;28;20033;-64
2024/02/06 01:47:25;;;;;;;7.68;3.30;;;;;;;;;;4985613;28;20049;-65
2024/02/06 01:49:51;;;;;;;7.40;3.22;;;;;;;;;;4986525;28;20121;-64
2024/02/06 01:52:17;;;;;;;14.93;2.97;;;;;;;;;;4985230;28;20544;-65
2024/02/06 01:54:43;;;;;;;7.55;3.05;;;;;;;;;;4987601;28;20026;-65
2024/02/06 01:57:09;;;;;;;9.38;3.47;;;;;;;;;;4986950;28;20026;-64
2024/02/06 01:59:35;;;;;;;11.82;3.78;;;;;;;;;;4985995;28;20498;-65
2024/02/06 02:02:02;;;;;;;10.10;3.88;;;;;;;;;;4987139;28;20027;-63
2024/02/06 02:04:28;;;;;;;15.73;3.63;;;;;;;;;;4985798;28;20022;-65
2024/02/06 02:06:54;;;;;;;15.10;2.88;;;;;;;;;;4986566;28;20061;-65
2024/02/06 02:09:21;;;;;;;13.85;3.70;;;;;;;;;;4986377;28;20235;-63
2024/02/06 02:11:47;;;;;;;10.38;3.63;;;;;;;;;;4985713;28;20106;-64
2024/02/06 02:14:13;;;;;;;19.52;3.83;;;;;;;;;;4987170;28;20022;-63
2024/02/06 02:16:39;;;;;;;15.70;3.08;;;;;;;;;;4984907;28;20490;-65
2024/02/06 02:19:05;;;;;;;12.52;3.35;;;;;;;;;;4988333;28;20058;-64
2024/02/06 02:21:31;;;;;;;14.80;2.83;;;;;;;;;;4982947;28;20508;-63
2024/02/06 02:23:57;;;;;;;14.13;3.97;;;;;;;;;;4987016;28;20026;-65
2024/02/06 02:26:23;;;;;;;11.27;2.95;;;;;;;;;;4984297;28;20076;-63
2024/02/06 02:28:50;;;;;;;23.05;4.15;;;;;;;;;;4986981;28;20101;-64
2024/02/06 02:31:16;;;;;;;8.88;3.38;;;;;;;;;;4984740;28;20018;-62
2024/02/06 02:33:42;;;;;;;15.13;2.97;;;;;;;;;;4986040;28;20064;-63
2024/02/06 02:36:10;;;;;;;15.15;3.15;;;;;;;;;;4986744;28;20053;-64
2024/02/06 02:38:37;;;;;;;8.77;3.67;;;;;;;;;;4985758;28;20045;-64
2024/02/06 02:41:03;;;;;;;9.80;2.65;;;;;;;;;;4986008;28;20030;-64
2024/02/06 02:43:29;;;;;;;13.90;3.05;;;;;;;;;;4985425;28;20027;-63
2024/02/06 02:45:55;;;;;;;11.88;2.63;;;;;;;;;;4987166;28;20038;-63
2024/02/06 02:48:21;;;;;;;10.30;3.20;;;;;;;;;;4988652;28;20038;-64
2024/02/06 02:50:47;;;;;;;12.88;3.40;;;;;;;;;;4990170;28;20049;-63
2024/02/06 02:53:12;;;;;;;8.38;2.83;;;;;;;;;;4989890;28;20123;-62
2024/02/06 02:55:38;;;;;;;16.58;2.95;;;;;;;;;;4989063;28;20034;-65
2024/02/06 02:58:05;;;;;;;13.30;3.22;;;;;;;;;;4990156;28;20137;-65
2024/02/06 03:00:31;;;;;;;10.65;3.20;;;;;;;;;;4989270;28;20023;-64
2024/02/06 03:02:57;;;;;;;13.90;3.50;;;;;;;;;;4991436;28;20023;-64
2024/02/06 03:05:23;;;;;;;16.20;2.38;;;;;;;;;;4990264;28;20034;-65
2024/02/06 03:07:49;;;;;;;15.15;2.47;;;;;;;;;;4990431;28;20040;-64
2024/02/06 03:10:15;;;;;;;16.63;3.20;;;;;;;;;;4987336;28;20057;-64
2024/02/06 03:12:41;;;;;;;11.20;2.65;;;;;;;;;;4988330;28;20034;-62
2024/02/06 03:15:07;;;;;;;9.40;2.25;;;;;;;;;;4991297;28;20023;-65
2024/02/06 03:17:33;;;;;;;9.70;2.15;;;;;;;;;;4989969;28;20069;-65
2024/02/06 03:20:01;;;;;;;6.53;2.17;;;;;;;;;;4990442;28;20054;-65
2024/02/06 03:22:28;;;;;;;13.50;2.60;;;;;;;;;;4989701;28;20453;-65
2024/02/06 03:24:54;;;;;;;13.80;2.83;;;;;;;;;;4989295;28;20045;-64
2024/02/06 03:27:20;;;;;;;10.95;2.38;;;;;;;;;;4988087;28;20396;-66
2024/02/06 03:29:46;;;;;;;8.45;2.47;;;;;;;;;;4990074;28;20038;-66
2024/02/06 03:32:12;;;;;;;9.02;2.30;;;;;;;;;;4989279;28;20113;-64
2024/02/06 03:34:38;;;;;;;13.35;3.13;;;;;;;;;;4990609;28;20396;-65
2024/02/06 03:37:04;;;;;;;8.32;2.10;;;;;;;;;;4989842;28;20027;-65
2024/02/06 03:39:30;;;;;;;9.27;1.83;;;;;;;;;;4990430;28;20030;-66
2024/02/06 03:41:56;;;;;;;11.88;2.42;;;;;;;;;;4989989;28;20057;-66
2024/02/06 03:44:22;;;;;;;14.77;2.85;;;;;;;;;;4988852;28;20110;-65
2024/02/06 03:46:48;;;;;;;11.68;2.67;;;;;;;;;;4986649;28;20038;-63
2024/02/06 03:49:14;;;;;;;10.25;2.38;;;;;;;;;;4987880;28;20027;-64
2024/02/06 03:51:40;;;;;;;14.23;2.72;;;;;;;;;;4989335;28;20487;-65
2024/02/06 03:54:06;;;;;;;11.20;2.42;;;;;;;;;;4990969;28;20121;-65
2024/02/06 03:56:32;;;;;;;11.13;2.55;;;;;;;;;;4985299;28;20401;-65
2024/02/06 03:58:58;;;;;;;11.68;2.42;;;;;;;;;;4988005;28;20030;-64
2024/02/06 04:01:24;;;;;;;6.30;2.40;;;;;;;;;;4985916;28;20447;-64
2024/02/06 04:03:50;;;;;;;15.30;2.90;;;;;;;;;;4991177;28;20496;-63
2024/02/06 04:06:16;;;;;;;15.48;2.20;;;;;;;;;;4989856;28;20053;-64
2024/02/06 04:08:43;;;;;;;15.02;2.72;;;;;;;;;;4989516;28;20095;-64
2024/02/06 04:11:12;;;;;;;7.28;2.20;;;;;;;;;;4989270;28;20042;-63
2024/02/06 04:13:38;;;;;;;7.95;2.15;;;;;;;;;;4988710;28;20026;-64
2024/02/06 04:16:05;;;;;;;6.93;2.00;;;;;;;;;;4987351;28;20034;-65
2024/02/06 04:18:31;;;;;;;14.50;1.90;;;;;;;;;;4989365;28;20029;-64
2024/02/06 04:20:57;;;;;;;8.50;2.50;;;;;;;;;;4990014;28;20501;-64
2024/02/06 04:23:23;;;;;;;13.52;2.75;;;;;;;;;;4989875;28;20053;-65
2024/02/06 04:25:49;;;;;;;12.52;2.15;;;;;;;;;;4989383;28;20390;-64
2024/02/06 04:28:15;;;;;;;8.05;1.92;;;;;;;;;;4988119;28;20030;-65
2024/02/06 04:30:41;;;;;;;8.23;2.63;;;;;;;;;;4988269;28;20723;-65
2024/02/06 04:33:08;;;;;;;6.80;1.95;;;;;;;;;;4987132;28;20124;-65
2024/02/06 04:35:34;;;;;;;7.25;2.13;;;;;;;;;;4988634;28;20041;-66
2024/02/06 04:38:00;;;;;;;14.23;2.80;;;;;;;;;;4988803;28;20033;-66
2024/02/06 04:40:26;;;;;;;17.58;2.28;;;;;;;;;;4988122;28;20101;-65
2024/02/06 04:42:52;;;;;;;10.88;2.30;;;;;;;;;;4989708;28;20034;-64
2024/02/06 04:45:18;;;;;;;11.73;2.47;;;;;;;;;;4987781;28;20031;-65
2024/02/06 04:47:44;;;;;;;17.20;2.22;;;;;;;;;;4986308;28;20229;-66
2024/02/06 04:50:10;;;;;;;10.55;2.65;;;;;;;;;;4988608;28;20338;-65
2024/02/06 04:52:36;;;;;;;6.03;2.28;;;;;;;;;;4987731;28;20408;-66
2024/02/06 04:55:04;;;;;;;9.30;2.58;;;;;;;;;;4989943;28;20075;-65
2024/02/06 04:57:30;;;;;;;9.88;1.83;;;;;;;;;;4987420;28;20114;-66
2024/02/06 04:59:57;;;;;;;6.40;1.90;;;;;;;;;;4986830;28;20026;-64
2024/02/06 05:02:23;;;;;;;7.25;2.30;;;;;;;;;;4987119;28;20519;-66
2024/02/06 05:04:49;;;;;;;11.00;2.40;;;;;;;;;;4985488;28;20026;-64
2024/02/06 05:07:15;;;;;;;11.55;2.42;;;;;;;;;;4987707;28;20026;-66
2024/02/06 05:09:41;;;;;;;18.70;2.25;;;;;;;;;;4988398;28;20038;-66
2024/02/06 05:12:07;;;;;;;12.02;2.80;;;;;;;;;;4987748;28;20038;-65
2024/02/06 05:14:34;;;;;;;6.47;2.60;;;;;;;;;;4987508;28;20030;-66
2024/02/06 05:16:59;;;;;;;13.48;1.85;;;;;;;;;;4983026;28;20026;-65
2024/02/06 05:19:25;;;;;;;8.52;2.00;;;;;;;;;;4987097;28;20109;-66
2024/02/06 05:21:52;;;;;;;7.05;2.08;;;;;;;;;;4985185;28;20568;-66
2024/02/06 05:24:18;;;;;;;8.07;2.03;;;;;;;;;;4985837;28;20113;-66
2024/02/06 05:26:43;;;;;;;7.50;3.20;;;;;;;;;;4980628;28;20588;-66
2024/02/06 05:29:10;;;;;;;13.73;3.38;;;;;;;;;;4988951;28;20149;-63
2024/02/06 05:31:35;;;;;;;10.35;2.38;;;;;;;;;;4987676;28;20042;-63
2024/02/06 05:34:01;;;;;;;13.18;2.40;;;;;;;;;;4988368;28;20511;-64
2024/02/06 05:36:27;;;;;;;12.63;2.60;;;;;;;;;;4985651;28;20522;-64
2024/02/06 05:38:53;;;;;;;13.07;2.78;;;;;;;;;;4989489;28;20500;-63
2024/02/06 05:41:19;;;;;;;8.77;2.35;;;;;;;;;;4987990;28;20477;-64
2024/02/06 05:43:45;;;;;;;11.05;2.22;;;;;;;;;;4989223;28;20109;-65
2024/02/06 05:46:11;;;;;;;9.68;2.63;;;;;;;;;;4988019;28;20038;-64
2024/02/06 05:48:38;;;;;;;10.30;2.95;;;;;;;;;;4991553;28;20377;-62
2024/02/06 05:51:04;;;;;;;9.07;2.97;;;;;;;;;;4987656;28;20152;-65
2024/02/06 05:53:33;;;;;;;9.52;2.42;;;;;;;;;;4985754;28;20114;-65
2024/02/06 05:56:00;;;;;;;12.75;3.40;;;;;;;;;;4985931;28;20022;-65
2024/02/06 05:58:25;;;;;;;13.20;3.05;;;;;;;;;;4986215;28;20560;-65
2024/02/06 06:00:51;;;;;;;12.35;3.08;;;;;;;;;;4985081;28;20049;-65
2024/02/06 06:03:17;;;;;;;13.15;2.63;;;;;;;;;;4982721;28;20045;-63
2024/02/06 06:05:43;;;;;;;10.65;3.33;;;;;;;;;;4978073;28;20037;-64
2024/02/06 06:08:09;;;;;;;6.97;2.83;;;;;;;;;;4985154;28;20034;-63
2024/02/06 06:10:35;;;;;;;10.48;3.13;;;;;;;;;;4983593;28;20026;-65
2024/02/06 06:13:01;;;;;;;15.27;3.22;;;;;;;;;;4983667;28;20487;-62
2024/02/06 06:15:27;;;;;;;9.32;3.10;;;;;;;;;;4986290;28;21272;-62
2024/02/06 06:17:53;;;;;;;13.77;3.42;;;;;;;;;;4982644;28;20067;-62
2024/02/06 06:20:21;;;;;;;15.40;3.30;;;;;;;;;;4986079;28;20065;-61
2024/02/06 06:22:47;;;;;;;11.73;3.25;;;;;;;;;;4992586;28;20490;-60
2024/02/06 06:25:13;;;;;;;9.02;3.33;;;;;;;;;;4994573;28;20436;-61
2024/02/06 06:27:42;;;;;;;21.48;3.42;;;;;;;;;;4994552;28;20417;-62
2024/02/06 06:30:08;;;;;;;7.28;3.03;;;;;;;;;;4991594;28;20030;-60
2024/02/06 06:32:34;;;;;;;13.65;3.80;;;;;;;;;;4993444;28;20500;-61
2024/02/06 06:35:00;;;;;;;13.25;3.42;;;;;;;;;;4995787;28;20037;-61
2024/02/06 06:37:26;;;;;;;15.95;3.33;;;;;;;;;;4994006;28;20030;-61
2024/02/06 06:39:54;;;;;;;9.25;3.42;;;;;;;;;;4988107;28;20022;-60
2024/02/06 06:42:20;;;;;;;14.25;3.72;;;;;;;;;;4990361;28;20027;-61
2024/02/06 06:44:46;;;;;;;10.65;3.38;;;;;;;;;;4990995;28;20089;-62
2024/02/06 06:47:12;;;;;;;13.55;4.57;;;;;;;;;;4989663;28;20034;-62
2024/02/06 06:49:38;;;;;;;17.00;3.97;;;;;;;;;;4993817;28;20572;-61
2024/02/06 06:52:05;;;;;;;20.00;3.67;;;;;;;;;;4989403;28;20034;-58
2024/02/06 06:54:31;;;;;;;18.70;3.10;;;;;;;;;;4990098;28;20034;-62
2024/02/06 06:56:57;;;;;;;13.93;3.60;;;;;;;;;;4992846;28;20081;-61
2024/02/06 06:59:23;;;;;;;11.80;3.65;;;;;;;;;;4990077;28;20042;-60
2024/02/06 07:01:50;;;;;;;9.80;3.08;;;;;;;;;;4991704;28;20109;-60
2024/02/06 07:04:16;;;;;;;9.85;2.97;;;;;;;;;;4992180;28;20026;-60
2024/02/06 07:06:43;;;;;;;14.68;4.05;;;;;;;;;;4992764;28;20513;-60
2024/02/06 07:09:09;;;;;;;19.58;4.55;;;;;;;;;;4993200;28;20385;-62
2024/02/06 07:11:35;;;;;;;17.88;3.85;;;;;;;;;;4992226;28;20101;-62
2024/02/06 07:14:01;;;;;;;9.05;2.92;;;;;;;;;;4991476;28;20078;-62
2024/02/06 07:16:27;;;;;;;16.00;3.47;;;;;;;;;;4991120;28;20034;-61
2024/02/06 07:18:53;;;;;;;8.93;3.17;;;;;;;;;;4992046;28;20026;-62
2024/02/06 07:21:19;;;;;;;11.65;2.95;;;;;;;;;;4992011;28;20037;-63
2024/02/06 07:23:45;;;;;;;14.65;3.92;;;;;;;;;;4985768;28;20145;-61
2024/02/06 07:26:11;;;;;;;11.13;3.08;;;;;;;;;;4986494;28;20512;-61
2024/02/06 07:28:41;;;;;;;13.10;4.00;;;;;;;;;;4991823;28;20425;-62
2024/02/06 07:31:07;;;;;;;8.32;3.28;;;;;;;;;;4989275;28;20095;-60
2024/02/06 07:33:32;;;;;;;10.50;3.00;;;;;;;;;;4977445;28;20521;-62
2024/02/06 07:35:59;;;;;;;6.65;3.10;;;;;;;;;;4990356;28;20030;-62
2024/02/06 07:38:25;;;;;;;11.65;2.95;;;;;;;;;;4993001;28;20027;-62
2024/02/06 07:40:50;;;;;;;13.98;3.38;;;;;;;;;;4992527;28;20021;-61
2024/02/06 07:43:17;;;;;;;11.88;3.40;;;;;;;;;;4992107;28;20101;-60
2024/02/06 07:45:42;;;;;;;15.50;3.15;;;;;;;;;;4992430;28;20027;-61
2024/02/06 07:48:08;;;;;;;14.27;3.40;;;;;;;;;;4991021;28;20023;-61
2024/02/06 07:50:34;;;;;;;15.57;3.58;;;;;;;;;;4991332;28;20106;-61
2024/02/06 07:53:00;;;;;;;14.95;3.60;;;;;;;;;;4987724;28;20033;-60
2024/02/06 07:55:26;;;;;;;12.15;3.38;;;;;;;;;;4991197;28;20049;-61
2024/02/06 07:57:52;;;;;;;10.43;2.55;;;;;;;;;;4982993;28;20122;-60
2024/02/06 08:00:18;;;;;;;14.20;3.20;;;;;;;;;;4992193;28;20026;-61
2024/02/06 08:02:44;;;;;;;15.77;4.07;;;;;;;;;;4986506;28;20472;-59
2024/02/06 08:05:10;;;;;;;17.85;3.67;;;;;;;;;;4990904;28;20528;-61
2024/02/06 08:07:40;;;;;;;19.02;3.50;;;;;;;;;;4990743;28;20188;-61
2024/02/06 08:10:06;;;;;;;15.77;3.80;;;;;;;;;;4991276;28;20032;-60
2024/02/06 08:12:32;;;;;;;13.23;3.53;;;;;;;;;;4990705;28;20480;-57
2024/02/06 08:15:00;;;;;;;12.98;3.88;;;;;;;;;;4991066;28;20026;-60
2024/02/06 08:17:26;;;;;;;12.38;3.70;;;;;;;;;;4991607;28;20503;-59
2024/02/06 08:19:52;;;;;;;19.60;5.20;;;;;;;;;;4990462;28;20402;-57
2024/02/06 08:22:18;;;;;;;15.48;4.20;;;;;;;;;;4990559;28;20113;-60
2024/02/06 08:24:44;;;;;;;7.93;3.50;;;;;;;;;;4991923;28;20488;-59
2024/02/06 08:27:10;;;;;;;14.70;4.25;;;;;;;;;;4990495;28;20518;-60
2024/02/06 08:29:36;;;;;;;18.92;3.10;;;;;;;;;;4991692;28;20034;-60
2024/02/06 08:32:03;;;;;;;15.90;3.47;;;;;;;;;;4991053;28;20488;-61
2024/02/06 08:34:29;;;;;;;22.45;4.20;;;;;;;;;;4988284;28;20126;-61
2024/02/06 08:36:55;;;;;;;12.82;3.20;;;;;;;;;;4990977;28;20053;-60
2024/02/06 08:39:20;;;;;;;14.73;3.92;;;;;;;;;;4988722;28;20018;-60
2024/02/06 08:41:46;;;;;;;11.95;3.75;;;;;;;;;;4988727;28;20023;-61
2024/02/06 08:44:12;;;;;;;16.20;3.88;;;;;;;;;;4990610;28;20102;-61
2024/02/06 08:46:39;;;;;;;15.68;3.58;;;;;;;;;;4992229;28;20568;-60
2024/02/06 08:49:07;;;;;;;15.13;3.20;;;;;;;;;;4984000;28;20445;-60
2024/02/06 08:51:33;;;;;;;13.68;4.13;;;;;;;;;;4982487;28;20037;-59
2024/02/06 08:53:59;;;;;;;21.73;3.85;;;;;;;;;;4985883;28;20038;-61
2024/02/06 08:56:25;;;;;;;12.30;2.88;;;;;;;;;;4990319;28;20084;-59
2024/02/06 08:58:51;;;;;;;12.52;3.90;;;;;;;;;;4988161;28;20022;-59
2024/02/06 09:01:17;;;;;;;17.58;4.10;;;;;;;;;;4990439;28;20027;-59
2024/02/06 09:03:43;;;;;;;9.40;4.00;;;;;;;;;;4990048;28;20022;-60
2024/02/06 09:06:09;;;;;;;14.65;3.13;;;;;;;;;;4985349;28;20049;-60
2024/02/06 09:08:35;;;;;;;9.85;3.30;;;;;;;;;;4989680;28;20026;-61
2024/02/06 09:11:03;;;;;;;12.20;3.40;;;;;;;;;;4987671;28;20032;-61
2024/02/06 09:13:29;;;;;;;11.80;2.92;;;;;;;;;;4989921;28;20026;-58
2024/02/06 09:15:55;;;;;;;16.00;4.50;;;;;;;;;;4986175;28;20022;-60
2024/02/06 09:18:20;;;;;;;10.07;3.67;;;;;;;;;;4990407;28;20531;-60
2024/02/06 09:20:46;;;;;;;14.15;3.20;;;;;;;;;;4990382;28;20022;-60
2024/02/06 09:23:13;;;;;;;17.27;4.05;;;;;;;;;;4988213;28;20437;-60
2024/02/06 09:25:42;;;;;;;13.32;3.00;;;;;;;;;;4991136;28;20121;-60
2024/02/06 09:28:08;;;;;;;10.23;2.80;;;;;;;;;;4989087;28;20058;-58
2024/02/06 09:30:37;;;;;;;13.35;3.22;;;;;;;;;;4991529;28;20105;-59
2024/02/06 09:33:04;;;;;;;15.65;3.50;;;;;;;;;;4988509;28;20022;-59
2024/02/06 09:35:30;;;;;;;15.93;3.30;;;;;;;;;;4990384;28;20022;-59
2024/02/06 09:37:56;;;;;;;12.27;3.65;;;;;;;;;;4988093;28;20037;-59
2024/02/06 09:40:22;;;;;;;11.32;2.75;;;;;;;;;;4990643;28;20434;-60
2024/02/06 09:42:48;;;;;;;11.00;3.45;;;;;;;;;;4989832;28;20420;-60
2024/02/06 09:45:15;;;;;;;14.60;3.63;;;;;;;;;;4983764;28;20036;-60
2024/02/06 09:47:41;;;;;;;9.73;3.20;;;;;;;;;;4988088;28;20033;-59
2024/02/06 09:50:09;;;;;;;11.40;3.65;;;;;;;;;;4989717;28;20137;-61
2024/02/06 09:52:36;;;;;;;10.63;3.00;;;;;;;;;;4979109;28;20114;-60
2024/02/06 09:55:08;;;;;;;15.65;3.20;;;;;;;;;;4986580;28;20077;-61
2024/02/06 09:57:36;;;;;;;9.13;3.25;;;;;;;;;;4978759;28;20083;-59
2024/02/06 10:00:02;;;;;;;10.70;3.17;;;;;;;;;;4989624;28;20404;-59
2024/02/06 10:02:29;;;;;;;11.60;3.10;;;;;;;;;;4981806;28;20041;-59
2024/02/06 10:04:56;;;;;;;12.07;3.63;;;;;;;;;;4989025;28;20026;-60
2024/02/06 10:07:22;;;;;;;11.65;3.03;;;;;;;;;;4983330;28;20523;-60
2024/02/06 10:09:49;;;;;;;20.73;4.35;;;;;;;;;;4991326;28;20022;-59
2024/02/06 10:12:16;;;;;;;10.38;3.42;;;;;;;;;;4988936;28;20077;-60
2024/02/06 10:14:42;;;;;;;12.00;3.22;;;;;;;;;;4990345;28;20030;-60
2024/02/06 10:17:09;;;;;;;17.63;4.53;;;;;;;;;;4988761;28;20577;-60
2024/02/06 10:19:35;;;;;;;13.10;3.88;;;;;;;;;;4986288;28;20027;-60
2024/02/06 10:22:01;;;;;;;16.38;4.32;;;;;;;;;;4986753;28;20022;-60
2024/02/06 10:24:29;;;;;;;13.30;3.58;;;;;;;;;;4989868;28;20658;-58
2024/02/06 10:27:04;;;;;;;13.60;3.67;;;;;;;;;;4990825;28;20522;-57
2024/02/06 10:29:32;;;;;;;9.50;3.28;;;;;;;;;;4988234;28;20030;-59
2024/02/06 10:32:00;;;;;;;12.30;4.13;;;;;;;;;;4988163;28;20026;-60
2024/02/06 10:34:27;;;;;;;7.80;3.67;;;;;;;;;;4989276;28;20081;-61
2024/02/06 10:36:59;;;;;;;11.20;3.85;;;;;;;;;;4988558;28;20030;-60
2024/02/06 10:39:29;;;;;;;11.75;3.83;;;;;;;;;;4987882;28;20025;-61
2024/02/06 10:42:01;;;;;;;14.38;4.18;;;;;;;;;;4989190;28;20069;-60
2024/02/06 10:44:28;;;;;;;14.30;4.40;;;;;;;;;;4986939;28;20019;-57
2024/02/06 10:47:00;;;;;;;11.23;4.32;;;;;;;;;;4984037;28;20109;-60
2024/02/06 10:49:27;;;;;;;15.93;4.07;;;;;;;;;;4987524;28;20116;-58
2024/02/06 10:52:02;;;;;;;14.02;4.40;;;;;;;;;;4985492;28;20109;-60
2024/02/06 10:54:28;;;;;;;18.60;4.57;;;;;;;;;;4989455;28;20034;-60
2024/02/06 10:56:59;;;;;;;14.13;4.57;;;;;;;;;;4989276;28;20042;-60
2024/02/06 10:59:26;;;;;;;20.05;5.07;;;;;;;;;;4983010;28;20566;-61
2024/02/06 11:01:52;;;;;;;13.52;4.78;;;;;;;;;;4987965;28;20492;-60
2024/02/06 11:04:21;;;;;;;12.77;4.93;;;;;;;;;;4989128;28;20034;-60
2024/02/06 11:06:50;;;;;;;14.13;4.85;;;;;;;;;;4987196;28;20035;-60
2024/02/06 11:09:18;;;;;;;10.43;4.70;;;;;;;;;;4993084;28;20432;-60
2024/02/06 11:11:44;;;;;;;15.50;4.03;;;;;;;;;;4992945;28;20113;-59
2024/02/06 11:14:12;;;;;;;16.90;4.70;;;;;;;;;;4991629;28;20430;-60
2024/02/06 11:16:42;;;;;;;20.30;4.65;;;;;;;;;;4993378;28;20411;-58
2024/02/06 11:19:12;;;;;;;10.48;4.25;;;;;;;;;;4989079;28;20392;-58
2024/02/06 11:21:40;;;;;;;13.23;4.68;;;;;;;;;;4992924;28;20019;-60
2024/02/06 11:24:07;;;;;;;16.58;4.57;;;;;;;;;;4990346;28;20085;-60
2024/02/06 11:26:33;;;;;;;21.10;4.50;;;;;;;;;;4988363;28;20037;-59
2024/02/06 11:29:06;;;;;;;12.48;4.72;;;;;;;;;;4990736;28;20034;-59
2024/02/06 11:31:33;;;;;;;18.08;4.85;;;;;;;;;;4991569;28;20026;-60
2024/02/06 11:34:09;;;;;;;16.63;4.75;;;;;;;;;;4989423;28;20026;-60
2024/02/06 11:36:35;;;;;;;12.02;4.15;;;;;;;;;;4992504;28;20443;-60
2024/02/06 11:39:15;;;;;;;19.27;4.95;;;;;;;;;;4991772;28;20031;-58
2024/02/06 11:41:42;;;;;;;19.50;4.82;;;;;;;;;;4987593;28;20022;-60
2024/02/06 11:44:14;;;;;;;14.48;4.65;;;;;;;;;;4992560;28;20032;-59
2024/02/06 11:46:47;;;;;;;14.57;4.47;;;;;;;;;;4988995;28;20022;-59
2024/02/06 11:49:14;;;;;;;12.25;3.72;;;;;;;;;;4990360;28;20027;-59
2024/02/06 11:51:40;;;;;;;12.52;3.88;;;;;;;;;;4988158;28;20061;-59
2024/02/06 11:54:13;;;;;;;20.00;4.65;;;;;;;;;;4990358;28;20139;-59
2024/02/06 11:56:42;;;;;;;15.45;4.00;;;;;;;;;;4992060;28;20105;-59
2024/02/06 11:59:09;;;;;;;13.45;4.22;;;;;;;;;;4988666;28;20053;-57
2024/02/06 12:01:35;;;;;;;15.70;4.97;;;;;;;;;;4988418;28;20381;-59
2024/02/06 12:04:04;;;;;;;16.15;4.65;;;;;;;;;;4989606;28;20050;-59
2024/02/06 12:06:30;;;;;;;23.90;4.50;;;;;;;;;;4992917;28;20014;-60
2024/02/06 12:09:05;;;;;;;11.60;4.25;;;;;;;;;;4989368;28;20042;-59
2024/02/06 12:11:35;;;;;;;22.17;4.38;;;;;;;;;;4990563;28;20034;-60
2024/02/06 12:14:01;;;;;;;17.13;4.00;;;;;;;;;;4990029;28;20029;-59
2024/02/06 12:16:27;;;;;;;10.27;4.60;;;;;;;;;;4990547;28;20515;-56
2024/02/06 12:18:53;;;;;;;8.68;3.80;;;;;;;;;;4988151;28;20090;-59
2024/02/06 12:21:23;;;;;;;14.88;4.43;;;;;;;;;;4987046;28;20027;-60
2024/02/06 12:23:49;;;;;;;17.83;4.82;;;;;;;;;;4986279;28;20022;-60
2024/02/06 12:26:23;;;;;;;17.88;3.92;;;;;;;;;;4985532;28;20041;-58
2024/02/06 12:28:49;;;;;;;10.57;4.25;;;;;;;;;;4988186;28;20034;-59
2024/02/06 12:31:15;;;;;;;10.00;4.25;;;;;;;;;;4987243;28;20045;-59
2024/02/06 12:33:41;;;;;;;13.73;3.90;;;;;;;;;;4987331;28;20027;-58
2024/02/06 12:36:07;;;;;;;17.48;4.75;;;;;;;;;;4988971;28;20507;-59
2024/02/06 12:38:34;;;;;;;16.25;4.60;;;;;;;;;;4991069;28;20130;-60
2024/02/06 12:41:03;;;;;;;13.85;3.70;;;;;;;;;;4992328;28;20026;-60
2024/02/06 12:43:29;;;;;;;12.25;3.47;;;;;;;;;;4993064;28;20030;-59
2024/02/06 12:45:55;;;;;;;13.93;4.65;;;;;;;;;;4993269;28;20029;-59
2024/02/06 12:48:21;;;;;;;20.67;3.88;;;;;;;;;;4987971;28;20046;-58
2024/02/06 12:50:48;;;;;;;23.00;4.93;;;;;;;;;;4989509;28;20496;-59
2024/02/06 12:53:23;;;;;;;14.30;4.45;;;;;;;;;;4991219;28;20034;-60
2024/02/06 12:55:50;;;;;;;17.17;4.78;;;;;;;;;;4990878;28;20030;-59
2024/02/06 12:58:16;;;;;;;11.60;3.67;;;;;;;;;;4991636;28;20093;-59
2024/02/06 13:00:42;;;;;;;17.70;3.75;;;;;;;;;;4991209;28;20480;-59
2024/02/06 13:03:08;;;;;;;14.98;4.05;;;;;;;;;;4985842;28;20079;-57
2024/02/06 13:05:34;;;;;;;11.50;3.58;;;;;;;;;;4986244;28;20080;-57
2024/02/06 13:08:12;;;;;;;17.63;3.42;;;;;;;;;;4990585;28;20315;-59
2024/02/06 13:10:38;;;;;;;17.65;3.78;;;;;;;;;;4991098;28;20501;-60
2024/02/06 13:13:04;;;;;;;11.10;3.50;;;;;;;;;;4983509;28;20053;-60
2024/02/06 13:15:31;;;;;;;15.88;3.72;;;;;;;;;;4989716;28;20034;-59
2024/02/06 13:17:58;;;;;;;12.10;3.88;;;;;;;;;;4989485;28;20026;-60
2024/02/06 13:20:24;;;;;;;8.40;2.95;;;;;;;;;;4987334;28;20033;-59
2024/02/06 13:22:50;;;;;;;16.60;3.28;;;;;;;;;;4985325;28;20392;-59
2024/02/06 13:25:16;;;;;;;10.77;3.30;;;;;;;;;;4986936;28;20018;-60
2024/02/06 13:27:43;;;;;;;23.20;5.57;;;;;;;;;;4989342;28;20037;-60
2024/02/06 13:30:10;;;;;;;12.73;4.43;;;;;;;;;;4987442;28;20026;-58
2024/02/06 13:32:36;;;;;;;15.23;3.53;;;;;;;;;;4988767;28;20029;-60
2024/02/06 13:35:03;;;;;;;11.13;3.30;;;;;;;;;;4990069;28;20036;-59
2024/02/06 13:37:30;;;;;;;11.52;3.95;;;;;;;;;;4991112;28;20023;-59
2024/02/06 13:39:56;;;;;;;22.08;4.57;;;;;;;;;;4991782;28;20065;-58
2024/02/06 13:42:22;;;;;;;11.90;4.50;;;;;;;;;;4988813;28;20054;-59
2024/02/06 13:44:49;;;;;;;14.30;3.33;;;;;;;;;;4983890;28;20101;-59
2024/02/06 13:47:15;;;;;;;19.02;4.45;;;;;;;;;;4990542;28;20018;-57
2024/02/06 13:49:40;;;;;;;9.73;3.08;;;;;;;;;;4981918;28;20433;-60
2024/02/06 13:52:06;;;;;;;10.25;3.33;;;;;;;;;;4987471;28;20097;-59
2024/02/06 13:54:32;;;;;;;5.47;2.80;;;;;;;;;;4988873;28;20445;-59
2024/02/06 13:56:58;;;;;;;10.73;3.80;;;;;;;;;;4991069;28;20477;-60
2024/02/06 13:59:25;;;;;;;9.57;3.42;;;;;;;;;;4985363;28;20022;-60
2024/02/06 14:01:51;;;;;;;9.15;3.80;;;;;;;;;;4988237;28;20029;-60
2024/02/06 14:04:17;;;;;;;10.02;3.33;;;;;;;;;;4977892;28;20022;-59
2024/02/06 14:06:43;;;;;;;14.77;3.28;;;;;;;;;;4986825;28;20108;-60
2024/02/06 14:09:13;;;;;;;15.07;3.60;;;;;;;;;;4983193;28;20453;-59
2024/02/06 14:11:42;;;;;;;11.98;3.15;;;;;;;;;;4984803;28;20050;-58
2024/02/06 14:14:08;;;;;;;9.98;2.83;;;;;;;;;;4984009;28;20030;-59
2024/02/06 14:16:34;;;;;;;10.63;3.88;;;;;;;;;;4989816;28;20077;-58
2024/02/06 14:19:04;;;;;;;8.70;3.17;;;;;;;;;;4986275;28;20019;-58
2024/02/06 14:21:31;;;;;;;11.43;2.35;;;;;;;;;;4988936;28;20058;-58
2024/02/06 14:23:57;;;;;;;12.25;2.95;;;;;;;;;;4986820;28;20060;-59
2024/02/06 14:26:23;;;;;;;12.98;3.20;;;;;;;;;;4987945;28;20158;-60
2024/02/06 14:28:49;;;;;;;15.48;2.92;;;;;;;;;;4987488;28;20066;-60